Time;durP1;ratioP1;P1;durP2;ratioP2;P2;SDS_P1;SDS_P2;PMS_P1;PMS_P2;Temp;Humidity;BMP_temperature;BMP_pressure;BME280_temperature;BME280_humidity;BME280_pressure;Samples;Min_cycle;Max_cycle;Signal;HPM_P1;HPM_P2
2021/12/29 00:02:02;;;;;;;29.08;12.70;;;;;;;-10.27;77.13;100402.25;4844239;29;20045;-76
2021/12/29 00:04:27;;;;;;;35.53;15.63;;;;;;;-10.36;77.44;100399.44;4845224;29;20416;-79
2021/12/29 00:06:53;;;;;;;20.13;8.57;;;;;;;-10.13;77.44;100399.94;4827938;29;20052;-73
2021/12/29 00:09:17;;;;;;;40.33;18.45;;;;;;;-10.22;77.46;100394.63;4844931;29;20131;-78
2021/12/29 00:11:42;;;;;;;26.58;11.88;;;;;;;-10.12;77.04;100392.25;4844393;29;20226;-77
2021/12/29 00:14:08;;;;;;;38.80;16.98;;;;;;;-10.27;77.60;100402.25;4844651;29;20081;-78
2021/12/29 00:16:35;;;;;;;51.75;19.35;;;;;;;-10.25;78.09;100395.41;4827384;29;20044;-75
2021/12/29 00:18:59;;;;;;;28.02;12.73;;;;;;;-10.12;77.83;100400.00;4843754;29;20060;-76
2021/12/29 00:21:26;;;;;;;37.45;16.83;;;;;;;-10.13;78.21;100397.38;4844251;29;20036;-77
2021/12/29 00:23:50;;;;;;;32.35;15.05;;;;;;;-10.13;77.65;100405.09;4827496;29;20049;-74
2021/12/29 00:26:15;;;;;;;19.77;10.00;;;;;;;-10.07;78.01;100382.94;4844218;29;20048;-74
2021/12/29 00:28:40;;;;;;;41.88;18.63;;;;;;;-10.10;77.58;100389.72;4844596;29;20045;-75
2021/12/29 00:31:05;;;;;;;45.08;18.33;;;;;;;-10.20;77.68;100388.66;4826832;29;20132;-72
2021/12/29 00:33:48;;;;;;;41.78;15.02;;;;;;;-10.20;77.99;100393.81;4828659;29;20098;-74
2021/12/29 00:36:42;;;;;;;18.75;8.55;;;;;;;-10.15;77.56;100392.19;4785635;29;20046;-76
2021/12/29 00:39:33;;;;;;;26.27;11.20;;;;;;;-10.24;77.09;100386.84;4770358;29;20108;-77
2021/12/29 00:42:24;;;;;;;20.27;9.18;;;;;;;-10.30;77.05;100389.28;4735263;30;20544;-74
2021/12/29 00:45:31;;;;;;;21.58;9.82;;;;;;;-10.43;77.08;100388.13;4682762;30;20063;-77
2021/12/29 00:47:55;;;;;;;25.20;10.80;;;;;;;-10.43;77.04;100400.13;4698575;30;20515;-80
2021/12/29 00:50:20;;;;;;;25.15;10.75;;;;;;;-10.40;76.68;100407.94;4669263;30;20471;-79
2021/12/29 00:52:46;;;;;;;21.85;9.65;;;;;;;-10.41;76.75;100388.16;4698063;30;20048;-71
2021/12/29 00:55:14;;;;;;;24.85;10.98;;;;;;;-10.42;76.60;100387.28;4697899;30;20058;-76
2021/12/29 00:57:40;;;;;;;22.60;7.40;;;;;;;-10.36;76.48;100387.44;4698483;30;20465;-78
2021/12/29 01:00:11;;;;;;;31.13;11.15;;;;;;;-10.39;75.93;100386.50;4682678;30;20060;-76
2021/12/29 01:02:36;;;;;;;31.95;13.50;;;;;;;-10.58;76.69;100389.44;4684308;30;20493;-78
2021/12/29 01:05:02;;;;;;;32.22;14.52;;;;;;;-10.66;76.85;100391.84;4684083;30;20977;-78
2021/12/29 01:07:27;;;;;;;30.20;11.80;;;;;;;-10.66;77.10;100392.72;4698042;30;20152;-78
2021/12/29 01:09:52;;;;;;;27.67;12.27;;;;;;;-10.68;77.12;100396.06;4698360;30;20056;-71
2021/12/29 01:12:16;;;;;;;33.53;13.55;;;;;;;-10.65;76.90;100402.19;4695956;30;20059;-73
2021/12/29 01:14:44;;;;;;;33.35;15.20;;;;;;;-10.67;76.83;100400.41;4696810;30;20052;-75
2021/12/29 01:17:09;;;;;;;20.08;9.07;;;;;;;-10.75;77.17;100407.94;4696428;30;20456;-74
2021/12/29 01:19:34;;;;;;;39.15;15.00;;;;;;;-10.72;77.08;100397.69;4785992;29;20060;-81
2021/12/29 01:22:01;;;;;;;28.70;12.32;;;;;;;-10.67;77.23;100401.25;4810376;29;20045;-72
2021/12/29 01:24:28;;;;;;;32.28;15.02;;;;;;;-10.80;77.41;100398.34;4842441;29;20461;-76
2021/12/29 01:26:54;;;;;;;21.42;10.38;;;;;;;-10.86;78.18;100390.47;4844245;29;20044;-74
2021/12/29 01:29:20;;;;;;;33.30;12.48;;;;;;;-10.85;77.96;100398.22;4825945;29;20064;-74
2021/12/29 01:31:45;;;;;;;21.77;8.10;;;;;;;-10.69;77.81;100400.34;4826261;29;20100;-72
2021/12/29 01:34:10;;;;;;;37.75;11.88;;;;;;;-10.76;77.36;100398.47;4843686;29;20053;-73
2021/12/29 01:36:37;;;;;;;24.40;11.32;;;;;;;-10.80;77.50;100398.34;4844803;29;20412;-74
2021/12/29 01:39:05;;;;;;;27.45;12.98;;;;;;;-10.83;77.45;100393.97;4847097;29;20064;-73
2021/12/29 01:41:30;;;;;;;18.77;9.13;;;;;;;-10.79;77.35;100395.81;4813488;29;20152;-68
2021/12/29 01:43:55;;;;;;;26.63;11.70;;;;;;;-10.83;77.63;100391.41;4845137;29;20189;-70
2021/12/29 01:46:20;;;;;;;30.27;10.77;;;;;;;-10.79;77.39;100393.22;4844934;29;20053;-69
2021/12/29 01:48:44;;;;;;;20.33;8.95;;;;;;;-10.74;77.30;100390.78;4828068;29;20558;-76
2021/12/29 01:51:11;;;;;;;24.45;11.80;;;;;;;-10.69;77.52;100394.31;4813110;29;20127;-72
2021/12/29 01:53:45;;;;;;;35.53;13.98;;;;;;;-10.62;77.13;100395.38;4812669;29;20140;-72
2021/12/29 01:56:10;;;;;;;;;;;;;;;-10.54;77.02;100392.16;4813408;29;20045;-73
2021/12/29 01:58:35;;;;;;;28.48;8.85;;;;;;;-10.56;76.86;100392.94;4827631;29;20420;-72
2021/12/29 02:01:04;;;;;;;25.80;9.70;;;;;;;-10.53;77.29;100390.44;4844971;29;20053;-71
2021/12/29 02:03:29;;;;;;;25.52;9.88;;;;;;;-10.47;77.17;100386.28;4827901;29;20056;-72
2021/12/29 02:05:54;;;;;;;33.53;11.68;;;;;;;-10.46;77.40;100376.84;4844538;29;20164;-71
2021/12/29 02:08:22;;;;;;;31.92;11.70;;;;;;;-10.41;76.86;100378.72;4844118;29;20092;-70
2021/12/29 02:10:48;;;;;;;35.05;12.73;;;;;;;-10.33;76.98;100381.47;4844453;29;20512;-72
2021/12/29 02:13:13;;;;;;;25.65;10.93;;;;;;;-10.25;76.80;100385.09;4827189;29;20516;-71
2021/12/29 02:15:38;;;;;;;26.40;11.05;;;;;;;-10.26;77.20;100380.78;4827132;29;20068;-72
2021/12/29 02:18:11;;;;;;;24.02;9.95;;;;;;;-10.19;77.41;100385.25;4827817;29;20265;-71
2021/12/29 02:20:36;;;;;;;34.25;12.35;;;;;;;-10.15;77.01;100387.03;4842247;29;20045;-70
2021/12/29 02:23:13;;;;;;;26.23;11.40;;;;;;;-10.15;77.50;100394.75;4843414;29;20056;-71
2021/12/29 02:25:47;;;;;;;26.98;10.63;;;;;;;-10.11;77.26;100387.97;4842025;29;20056;-70
2021/12/29 02:28:13;;;;;;;26.70;11.43;;;;;;;-10.07;77.14;100384.63;4841118;29;20833;-71
2021/12/29 02:30:37;;;;;;;25.60;10.48;;;;;;;-10.08;77.23;100383.75;4826509;29;20520;-69
2021/12/29 02:33:05;;;;;;;24.35;9.85;;;;;;;-10.06;76.57;100391.53;4816869;29;20119;-71
2021/12/29 02:35:30;;;;;;;31.70;12.75;;;;;;;-10.07;77.22;100387.22;4843724;29;20085;-70
2021/12/29 02:37:55;;;;;;;31.85;13.07;;;;;;;-10.04;76.82;100390.72;4826688;29;20072;-71
2021/12/29 02:40:20;;;;;;;30.20;12.73;;;;;;;-10.00;77.68;100397.69;4843623;29;20060;-71
2021/12/29 02:42:45;;;;;;;33.65;13.73;;;;;;;-9.93;77.16;100396.16;4843456;29;20412;-70
2021/12/29 02:45:18;;;;;;;23.65;10.07;;;;;;;-9.81;77.97;100387.78;4843546;29;20053;-71
2021/12/29 02:47:43;;;;;;;30.50;10.97;;;;;;;-9.73;77.17;100384.53;4826287;29;20049;-70
2021/12/29 02:50:09;;;;;;;24.77;10.70;;;;;;;-9.69;77.75;100381.19;4842842;29;20308;-68
2021/12/29 02:52:34;;;;;;;29.20;11.60;;;;;;;-9.64;77.21;100391.59;4826504;29;20075;-72
2021/12/29 02:54:59;;;;;;;28.05;11.88;;;;;;;-9.56;77.08;100377.16;4826373;29;20072;-66
2021/12/29 02:57:23;;;;;;;36.67;13.30;;;;;;;-9.61;77.05;100387.38;4826888;29;20049;-73
2021/12/29 02:59:48;;;;;;;27.48;11.43;;;;;;;-9.57;77.44;100385.72;4826890;29;20110;-73
2021/12/29 03:02:13;;;;;;;23.60;11.07;;;;;;;-9.59;77.15;100382.22;4826760;29;20049;-67
2021/12/29 03:04:38;;;;;;;19.90;10.23;;;;;;;-9.56;76.60;100374.56;4843651;29;20045;-73
2021/12/29 03:07:03;;;;;;;28.73;12.02;;;;;;;-9.52;77.20;100381.53;4811494;29;20052;-68
2021/12/29 03:09:28;;;;;;;22.10;9.93;;;;;;;-9.55;76.83;100379.75;4827248;29;20416;-72
2021/12/29 03:11:53;;;;;;;16.70;7.25;;;;;;;-9.48;76.47;100378.19;4844424;29;20456;-74
2021/12/29 03:14:20;;;;;;;22.75;8.75;;;;;;;-9.48;76.99;100367.88;4812541;29;20127;-74
2021/12/29 03:16:44;;;;;;;25.08;11.02;;;;;;;-9.59;75.97;100375.38;4844897;29;20048;-77
2021/12/29 03:19:10;;;;;;;32.63;14.02;;;;;;;-9.59;76.38;100372.78;4844780;29;20847;-74
2021/12/29 03:21:36;;;;;;;21.02;9.82;;;;;;;-9.56;76.82;100361.66;4812456;29;20500;-75
2021/12/29 03:24:02;;;;;;;19.02;9.52;;;;;;;-9.52;76.44;100371.22;4797200;29;20051;-75
2021/12/29 03:26:27;;;;;;;32.25;14.07;;;;;;;-9.46;76.88;100371.31;4844733;29;20051;-75
2021/12/29 03:28:53;;;;;;;20.23;8.55;;;;;;;-9.44;76.66;100358.47;4845102;29;20772;-75
2021/12/29 03:31:21;;;;;;;17.80;8.70;;;;;;;-9.41;76.44;100363.69;4797928;29;20045;-73
2021/12/29 03:33:46;;;;;;;25.23;10.65;;;;;;;-9.36;76.38;100362.06;4844630;29;20072;-69
2021/12/29 03:36:12;;;;;;;28.25;11.75;;;;;;;-9.54;75.52;100365.16;4826793;29;20079;-68
2021/12/29 03:38:38;;;;;;;25.38;9.38;;;;;;;-9.49;76.00;100362.69;4843099;29;20045;-67
2021/12/29 03:41:06;;;;;;;22.08;8.77;;;;;;;-9.64;75.79;100361.50;4826858;29;20049;-67
2021/12/29 03:43:32;;;;;;;19.77;9.80;;;;;;;-9.69;76.09;100367.41;4828754;29;20041;-67
2021/12/29 03:45:57;;;;;;;23.20;11.38;;;;;;;-9.73;75.47;100361.34;4797139;29;20049;-66
2021/12/29 03:48:24;;;;;;;24.63;11.25;;;;;;;-9.75;76.75;100363.00;4828102;29;20101;-65
2021/12/29 03:50:49;;;;;;;32.05;13.05;;;;;;;-9.79;77.21;100366.34;4845047;29;20056;-65
2021/12/29 03:53:16;;;;;;;29.45;12.55;;;;;;;-9.80;76.65;100367.19;4844596;29;20539;-70
2021/12/29 03:55:42;;;;;;;23.42;9.60;;;;;;;-9.72;77.15;100367.38;4826521;29;20055;-69
2021/12/29 03:58:07;;;;;;;26.88;12.95;;;;;;;-9.74;76.59;100367.31;4843101;29;20040;-69
2021/12/29 04:00:32;;;;;;;33.78;12.88;;;;;;;-9.64;76.00;100368.38;4826438;29;20056;-69
2021/12/29 04:02:57;;;;;;;22.67;9.48;;;;;;;-9.59;76.54;100372.78;4842770;29;20041;-69
2021/12/29 04:05:23;;;;;;;20.58;10.05;;;;;;;-9.57;76.83;100368.53;4826739;29;20037;-69
2021/12/29 04:07:48;;;;;;;23.95;9.38;;;;;;;-9.55;75.98;100358.25;4833636;29;20040;-68
2021/12/29 04:10:14;;;;;;;30.85;12.18;;;;;;;-9.61;76.59;100356.44;4817993;29;20057;-69
2021/12/29 04:12:39;;;;;;;24.13;11.20;;;;;;;-9.54;76.51;100352.25;4839954;29;20124;-66
2021/12/29 04:15:05;;;;;;;26.45;11.63;;;;;;;-9.48;76.41;100351.50;4826106;29;20513;-68
2021/12/29 04:17:36;;;;;;;23.85;11.38;;;;;;;-9.46;76.53;100352.38;4825748;29;20047;-67
2021/12/29 04:22:45;;;;;;;18.02;9.50;;;;;;;-9.33;75.86;100347.50;4838427;29;20045;-68
2021/12/29 04:25:10;;;;;;;24.55;9.60;;;;;;;-9.28;75.54;100339.84;4815969;29;20047;-68
2021/12/29 04:27:35;;;;;;;25.75;10.05;;;;;;;-9.27;75.98;100346.78;4834221;29;20044;-73
2021/12/29 11:25:05;;;;;;;29.55;11.85;;;;;;;-8.86;65.55;100125.34;5379347;23;20163;-66
2021/12/29 11:27:33;;;;;;;33.83;13.02;;;;;;;-8.92;66.63;100114.94;4826407;29;20049;-67
2021/12/29 11:30:04;;;;;;;35.08;14.52;;;;;;;-8.98;66.65;100123.44;4843047;29;20045;-67
2021/12/29 11:32:42;;;;;;;18.27;8.35;;;;;;;-8.76;65.56;100118.56;4825969;29;20128;-67
2021/12/29 11:35:16;;;;;;;25.50;10.38;;;;;;;-8.96;66.37;100110.56;4842105;29;20499;-67
2021/12/29 11:37:48;;;;;;;33.67;11.32;;;;;;;-8.94;65.87;100109.75;4841439;29;20496;-68
2021/12/29 11:40:16;;;;;;;32.78;13.48;;;;;;;-9.09;65.86;100108.63;4842904;29;20052;-67
2021/12/29 11:42:42;;;;;;;39.83;14.80;;;;;;;-9.18;66.42;100104.22;4823400;29;20071;-69
2021/12/29 11:45:09;;;;;;;26.30;12.80;;;;;;;-9.08;66.11;100102.63;4832622;29;20044;-68
2021/12/29 11:47:33;;;;;;;22.77;11.80;;;;;;;-9.08;66.34;100097.47;4814503;29;20041;-67
2021/12/29 11:49:58;;;;;;;25.90;10.38;;;;;;;-9.23;66.49;100098.97;4824261;29;20061;-66
2021/12/29 11:52:49;;;;;;;43.20;16.52;;;;;;;-9.29;66.86;100106.63;4807518;29;20045;-67
2021/12/29 11:55:19;;;;;;;24.45;11.38;;;;;;;-9.30;67.12;100122.97;4832224;29;20053;-68
2021/12/29 11:57:44;;;;;;;35.58;13.75;;;;;;;-9.48;66.79;100109.78;4842767;29;20516;-67
2021/12/29 12:00:21;;;;;;;32.28;13.02;;;;;;;-9.52;67.67;100118.31;4836592;29;20048;-67
2021/12/29 12:02:49;;;;;;;21.05;10.10;;;;;;;-9.55;67.82;100108.81;4819160;29;20079;-67
2021/12/29 12:05:18;;;;;;;28.98;12.25;;;;;;;-9.72;67.58;100112.84;4817433;29;20472;-65
2021/12/29 12:07:44;;;;;;;11.38;6.55;;;;;;;-9.74;67.82;100122.25;4817407;29;20089;-66
2021/12/29 12:10:23;;;;;;;20.05;9.23;;;;;;;-9.68;67.91;100121.47;4834292;29;20120;-67
2021/12/29 12:12:52;;;;;;;31.02;12.80;;;;;;;-9.71;67.71;100134.34;4841878;29;20048;-66
2021/12/29 12:15:29;;;;;;;25.00;9.68;;;;;;;-9.65;68.23;100106.03;4834100;29;20049;-70
2021/12/29 12:17:55;;;;;;;31.48;14.55;;;;;;;-9.85;68.10;100122.91;4843793;29;20144;-68
2021/12/29 12:20:22;;;;;;;41.40;13.73;;;;;;;-9.96;68.32;100109.81;4843528;29;20053;-66
2021/12/29 12:22:50;;;;;;;27.55;12.02;;;;;;;-9.94;68.32;100111.59;4826733;29;20103;-68
2021/12/29 12:25:30;;;;;;;23.25;9.80;;;;;;;-9.98;68.31;100109.78;4827524;29;20069;-67
2021/12/29 12:28:03;;;;;;;24.02;8.52;;;;;;;-10.00;68.68;100108.88;4853740;29;20045;-69
2021/12/29 12:30:46;;;;;;;20.80;9.77;;;;;;;-9.95;68.63;100111.56;4840230;29;20145;-66
2021/12/29 12:33:13;;;;;;;25.58;10.40;;;;;;;-10.10;67.97;100119.88;4857419;29;20044;-64
2021/12/29 12:35:40;;;;;;;25.83;13.00;;;;;;;-10.11;68.47;100117.25;4855123;29;20049;-69
2021/12/29 12:38:21;;;;;;;29.98;11.27;;;;;;;-10.22;68.53;100116.22;4856795;29;20052;-64
2021/12/29 12:40:58;;;;;;;25.40;9.38;;;;;;;-10.12;68.47;100124.13;4833857;29;20543;-68
2021/12/29 12:43:23;;;;;;;23.17;9.10;;;;;;;-10.15;68.70;100111.16;4833062;29;20105;-68
2021/12/29 12:45:51;;;;;;;43.25;16.45;;;;;;;-10.23;68.60;100107.63;4843786;29;20092;-68
2021/12/29 12:48:26;;;;;;;21.20;9.10;;;;;;;-10.23;68.55;100115.34;4849895;29;20512;-69
2021/12/29 12:50:52;;;;;;;10.32;6.78;;;;;;;-10.18;68.34;100105.16;4842341;29;20117;-68
2021/12/29 12:53:29;;;;;;;25.83;12.45;;;;;;;-10.33;67.79;100118.59;4842741;29;20045;-69
2021/12/29 12:55:56;;;;;;;26.10;10.82;;;;;;;-10.53;68.38;100119.91;4842941;29;20104;-68
2021/12/29 12:58:22;;;;;;;44.42;13.90;;;;;;;-10.68;68.65;100113.59;4842634;29;20045;-69
2021/12/29 13:00:50;;;;;;;32.33;13.50;;;;;;;-10.79;68.70;100116.78;4837187;29;20053;-68
2021/12/29 13:03:20;;;;;;;32.30;12.68;;;;;;;-10.86;68.96;100109.78;4842578;29;20073;-69
2021/12/29 13:05:54;;;;;;;14.88;7.53;;;;;;;-10.87;69.81;100115.78;4840399;29;20089;-67
2021/12/29 13:08:43;;;;;;;39.10;13.95;;;;;;;-10.87;69.86;100111.50;4834663;29;20048;-67
2021/12/29 13:11:12;;;;;;;32.80;10.88;;;;;;;-10.77;69.43;100099.69;4823740;29;20049;-67
2021/12/29 13:13:41;;;;;;;26.40;9.75;;;;;;;-10.65;68.43;100107.66;4792040;29;20153;-68
2021/12/29 13:16:12;;;;;;;17.38;9.38;;;;;;;-10.57;68.32;100100.06;4823936;29;20467;-66
2021/12/29 13:18:38;;;;;;;26.95;9.10;;;;;;;-10.56;68.74;100094.09;4823474;29;20084;-69
2021/12/29 13:21:06;;;;;;;35.65;11.88;;;;;;;-10.68;68.41;100093.00;4807278;29;20369;-68
2021/12/29 13:23:32;;;;;;;14.80;7.75;;;;;;;-10.71;68.47;100095.50;4823793;29;20053;-68
2021/12/29 13:25:58;;;;;;;27.65;11.32;;;;;;;-10.75;68.56;100095.44;4823328;29;20104;-67
2021/12/29 13:28:25;;;;;;;35.45;12.55;;;;;;;-11.04;68.65;100103.38;4823311;29;20042;-68
2021/12/29 13:31:01;;;;;;;29.58;9.77;;;;;;;-11.03;69.37;100099.97;4823614;29;20045;-68
2021/12/29 13:33:36;;;;;;;16.90;10.38;;;;;;;-11.03;69.30;100106.84;4824917;29;20054;-68
2021/12/29 13:36:06;;;;;;;16.75;6.72;;;;;;;-11.03;69.20;100099.09;4810166;29;20085;-67
2021/12/29 13:38:33;;;;;;;30.30;11.52;;;;;;;-11.25;69.42;100105.50;4810265;29;20045;-67
2021/12/29 13:41:05;;;;;;;39.10;15.75;;;;;;;-11.36;69.57;100101.81;4826500;29;20424;-68
2021/12/29 13:43:43;;;;;;;10.13;6.93;;;;;;;-11.21;69.88;100106.44;4826716;29;20060;-67
2021/12/29 13:46:19;;;;;;;43.45;17.48;;;;;;;-11.37;69.90;100098.34;4809789;29;20045;-67
2021/12/29 13:48:46;;;;;;;11.85;6.32;;;;;;;-11.24;69.38;100101.22;4827024;29;20501;-67
2021/12/29 13:51:22;;;;;;;8.60;5.03;;;;;;;-11.18;69.84;100098.78;4810062;29;20053;-68
2021/12/29 13:53:52;;;;;;;11.25;5.80;;;;;;;-11.23;69.48;100084.94;4826306;29;20496;-68
2021/12/29 13:56:25;;;;;;;41.13;14.93;;;;;;;-11.32;69.35;100105.31;4809886;29;20091;-67
2021/12/29 13:59:07;;;;;;;22.65;10.80;;;;;;;-11.53;69.53;100106.56;4826557;29;20050;-67
2021/12/29 14:01:34;;;;;;;37.28;15.32;;;;;;;-11.55;69.86;100090.22;4809541;29;20402;-67
2021/12/29 14:04:00;;;;;;;36.35;14.43;;;;;;;-11.55;69.94;100091.91;4826283;29;20076;-68
2021/12/29 14:06:26;;;;;;;38.20;15.30;;;;;;;-11.65;70.10;100095.97;4826408;29;20489;-67
2021/12/29 14:08:53;;;;;;;30.98;14.98;;;;;;;-11.69;70.80;100096.72;4809871;29;20053;-67
2021/12/29 14:11:23;;;;;;;44.78;16.05;;;;;;;-11.67;70.94;100097.63;4826965;29;20045;-67
2021/12/29 14:14:03;;;;;;;38.00;15.45;;;;;;;-11.65;71.46;100090.84;4809884;29;20480;-68
2021/12/29 14:16:31;;;;;;;44.60;17.90;;;;;;;-11.60;71.42;100088.34;4809696;29;20161;-68
2021/12/29 14:18:56;;;;;;;35.97;13.88;;;;;;;-11.63;70.76;100094.31;4826078;29;20394;-67
2021/12/29 14:21:32;;;;;;;35.92;14.07;;;;;;;-11.60;71.51;100091.81;4809727;29;20366;-68
2021/12/29 14:24:00;;;;;;;41.33;17.05;;;;;;;-11.63;70.90;100090.88;4809493;29;20053;-67
2021/12/29 14:26:40;;;;;;;40.15;16.13;;;;;;;-11.58;71.68;100100.44;4809409;29;20049;-67
2021/12/29 14:29:05;;;;;;;14.02;6.13;;;;;;;-11.58;70.96;100096.97;4809415;29;20580;-68
2021/12/29 14:31:43;;;;;;;32.05;13.43;;;;;;;-11.37;70.63;100075.19;4825811;29;20059;-67
2021/12/29 14:34:11;;;;;;;46.00;18.98;;;;;;;-11.44;70.17;100073.34;4809621;29;20045;-67
2021/12/29 14:36:49;;;;;;;38.55;13.50;;;;;;;-11.47;70.01;100073.25;4809442;29;20385;-68
2021/12/29 14:39:20;;;;;;;44.33;15.05;;;;;;;-11.43;69.73;100066.50;4809262;29;20553;-68
2021/12/29 14:41:47;;;;;;;30.77;13.93;;;;;;;-11.48;69.36;100071.50;4793831;29;20417;-67
2021/12/29 14:44:14;;;;;;;57.78;20.67;;;;;;;-11.56;69.58;100070.47;4825351;29;20045;-67
2021/12/29 14:47:00;;;;;;;32.13;11.95;;;;;;;-11.53;69.16;100069.69;4825463;29;20133;-67
2021/12/29 14:49:32;;;;;;;53.85;18.02;;;;;;;-11.73;69.66;100067.50;4808977;29;20537;-67
2021/12/29 14:52:01;;;;;;;37.05;15.30;;;;;;;-11.79;70.56;100069.97;4808925;29;20706;-68
2021/12/29 14:54:34;;;;;;;17.50;10.85;;;;;;;-11.60;70.12;100072.94;4808944;29;20073;-68
2021/12/29 14:56:59;;;;;;;24.77;8.63;;;;;;;-11.55;69.89;100066.19;4825697;29;20050;-67
2021/12/29 14:59:30;;;;;;;39.70;14.93;;;;;;;-11.55;69.71;100064.50;4825561;29;20065;-68
2021/12/29 15:02:18;;;;;;;47.15;18.05;;;;;;;-11.58;69.88;100051.56;4793972;29;20045;-68
2021/12/29 15:04:58;;;;;;;55.15;17.50;;;;;;;-11.57;69.41;100048.16;4808722;29;20056;-67
2021/12/29 15:07:23;;;;;;;27.33;8.82;;;;;;;-11.61;69.34;100046.34;4808656;29;20100;-68
2021/12/29 15:10:08;;;;;;;25.98;10.38;;;;;;;-11.69;69.59;100035.00;4808937;29;20057;-67
2021/12/29 15:12:35;;;;;;;37.80;15.43;;;;;;;-11.94;70.08;100028.44;4825227;29;20132;-67
2021/12/29 15:15:12;;;;;;;29.08;12.73;;;;;;;-11.96;70.06;100022.41;4825260;29;20052;-68
2021/12/29 15:17:36;;;;;;;16.00;9.35;;;;;;;-11.88;69.69;100012.31;4808482;29;20046;-68
2021/12/29 15:20:02;;;;;;;40.65;14.23;;;;;;;-11.96;70.27;100019.81;4825080;29;20061;-68
2021/12/29 15:22:28;;;;;;;20.83;10.77;;;;;;;-11.89;70.12;100008.88;4824935;29;20052;-68
2021/12/29 15:24:54;;;;;;;37.83;13.07;;;;;;;-11.97;70.53;100004.41;4792975;29;20068;-67
2021/12/29 15:27:20;;;;;;;32.35;11.70;;;;;;;-11.97;70.52;100002.69;4824932;29;20077;-67
2021/12/29 15:29:45;;;;;;;22.85;10.25;;;;;;;-11.89;70.28;99992.59;4793245;29;20488;-68
2021/12/29 15:32:09;;;;;;;24.98;12.05;;;;;;;-11.91;70.09;100002.81;4824677;29;20523;-66
2021/12/29 15:34:34;;;;;;;40.55;13.85;;;;;;;-12.02;69.67;100017.13;4807989;29;20077;-66
2021/12/29 15:36:59;;;;;;;40.10;15.82;;;;;;;-12.19;69.78;100010.72;4824725;29;20041;-67
2021/12/29 15:39:26;;;;;;;30.98;12.30;;;;;;;-12.30;70.00;100010.41;4824810;29;20041;-67
2021/12/29 15:41:55;;;;;;;27.15;10.60;;;;;;;-12.27;70.85;100017.34;4824782;29;20189;-67
2021/12/29 15:44:21;;;;;;;19.75;9.70;;;;;;;-12.14;70.86;100004.84;4808144;29;20136;-68
2021/12/29 15:46:46;;;;;;;34.67;14.18;;;;;;;-12.17;70.80;100015.03;4822396;29;20078;-72
2021/12/29 15:49:11;;;;;;;14.70;9.07;;;;;;;-12.12;70.47;100018.59;4792382;29;20148;-68
2021/12/29 15:51:37;;;;;;;37.95;15.95;;;;;;;-12.17;70.88;100027.88;4824407;29;20057;-71
2021/12/29 15:54:03;;;;;;;11.40;5.90;;;;;;;-12.08;71.26;100034.97;4824057;29;20060;-69
2021/12/29 15:56:28;;;;;;;43.72;16.45;;;;;;;-11.98;70.64;100034.38;4807278;29;20136;-70
2021/12/29 15:58:54;;;;;;;20.35;8.23;;;;;;;-12.03;71.14;100030.81;4807448;29;20053;-67
2021/12/29 16:01:21;;;;;;;42.25;14.73;;;;;;;-11.94;71.09;100037.84;4823537;29;20045;-71
2021/12/29 16:03:47;;;;;;;28.77;11.85;;;;;;;-11.92;70.35;100041.34;4806267;29;20076;-66
2021/12/29 16:06:11;;;;;;;34.22;13.30;;;;;;;-11.86;71.12;100038.94;4823037;29;20049;-69
2021/12/29 16:08:36;;;;;;;38.45;15.40;;;;;;;-11.88;70.63;100032.88;4791707;29;20065;-68
2021/12/29 16:11:01;;;;;;;12.82;6.22;;;;;;;-11.79;71.09;100039.09;4807186;29;20045;-65
2021/12/29 16:13:25;;;;;;;13.30;5.78;;;;;;;-11.61;70.63;100033.47;4807158;29;20501;-67
2021/12/29 16:15:50;;;;;;;9.80;5.82;;;;;;;-11.60;70.78;100031.78;4823574;29;20053;-71
2021/12/29 16:18:16;;;;;;;14.00;8.07;;;;;;;-11.65;70.34;100021.41;4824694;29;20050;-71
2021/12/29 16:20:42;;;;;;;29.70;11.45;;;;;;;-11.61;70.36;100018.03;4824261;29;20054;-70
2021/12/29 16:23:07;;;;;;;33.20;13.93;;;;;;;-11.69;70.13;100022.16;4823873;29;20049;-70
2021/12/29 16:25:36;;;;;;;20.13;10.32;;;;;;;-11.69;70.47;100011.88;4806899;29;20118;-69
2021/12/29 16:28:00;;;;;;;23.45;6.82;;;;;;;-11.52;69.65;100013.13;4807986;29;20053;-68
2021/12/29 16:30:26;;;;;;;32.92;13.98;;;;;;;-11.68;69.80;100011.03;4823699;29;20053;-70
2021/12/29 16:32:51;;;;;;;22.80;11.43;;;;;;;-11.76;69.70;100002.31;4823861;29;20098;-69
2021/12/29 16:35:17;;;;;;;8.60;5.30;;;;;;;-11.64;69.88;100000.00;4806725;29;20045;-69
2021/12/29 16:37:44;;;;;;;16.55;7.95;;;;;;;-11.75;68.83;99991.22;4823765;29;20102;-69
2021/12/29 16:40:13;;;;;;;25.42;9.98;;;;;;;-11.85;69.07;99992.69;4807794;29;20091;-74
2021/12/29 16:42:39;;;;;;;27.27;11.63;;;;;;;-11.93;69.14;100004.50;4808679;29;20046;-76
2021/12/29 16:45:06;;;;;;;21.20;8.77;;;;;;;-12.10;69.47;100000.66;4826017;29;20167;-71
2021/12/29 16:47:31;;;;;;;29.92;12.25;;;;;;;-12.07;69.61;100005.00;4823807;29;20508;-73
2021/12/29 16:49:59;;;;;;;14.75;6.80;;;;;;;-12.02;70.09;100008.53;4824499;29;20563;-74
2021/12/29 16:52:24;;;;;;;28.30;12.45;;;;;;;-12.21;70.46;100002.97;4824503;29;20049;-70
2021/12/29 16:54:49;;;;;;;20.42;9.23;;;;;;;-12.21;70.69;100002.09;4823785;29;20057;-71
2021/12/29 16:57:15;;;;;;;23.73;10.95;;;;;;;-12.22;69.90;100008.06;4823766;29;20041;-74
2021/12/29 16:59:42;;;;;;;17.55;7.88;;;;;;;-12.09;69.96;100001.53;4807595;29;20048;-74
2021/12/29 17:02:08;;;;;;;6.72;2.95;;;;;;;-12.13;70.02;99998.88;4809453;29;20482;-71
2021/12/29 17:04:34;;;;;;;21.70;10.20;;;;;;;-12.22;70.34;99996.09;4791476;29;20520;-75
2021/12/29 17:07:00;;;;;;;12.50;5.82;;;;;;;-12.12;70.56;100003.19;4824975;29;20053;-73
2021/12/29 17:09:26;;;;;;;17.35;8.73;;;;;;;-12.06;70.00;100002.44;4828901;29;20129;-75
2021/12/29 17:11:52;;;;;;;16.52;6.43;;;;;;;-12.19;69.72;99993.56;4829934;29;20457;-75
2021/12/29 17:14:18;;;;;;;14.57;6.57;;;;;;;-12.15;69.59;99995.41;4829089;29;20054;-78
2021/12/29 17:16:43;;;;;;;10.45;5.85;;;;;;;-12.17;69.40;99981.63;4828406;29;20077;-77
2021/12/29 17:19:10;;;;;;;17.05;5.78;;;;;;;-12.14;69.20;99975.72;4811607;29;20132;-74
2021/12/29 17:21:34;;;;;;;18.27;8.77;;;;;;;-12.04;69.45;99969.94;4828706;29;20057;-75
2021/12/29 17:24:04;;;;;;;28.40;13.10;;;;;;;-12.28;69.34;99966.78;4830073;29;20045;-74
2021/12/29 17:26:30;;;;;;;13.98;7.95;;;;;;;-12.33;68.81;99970.97;4830610;29;20143;-74
2021/12/29 17:28:59;;;;;;;17.13;7.30;;;;;;;-12.31;69.41;99969.31;4829543;29;20048;-73
2021/12/29 17:31:24;;;;;;;21.08;9.40;;;;;;;-12.44;69.30;99964.69;4846129;29;20080;-72
2021/12/29 17:33:49;;;;;;;12.05;6.65;;;;;;;-12.54;69.48;99955.91;4845845;29;20084;-68
2021/12/29 17:36:14;;;;;;;7.63;4.22;;;;;;;-12.55;69.56;99946.44;4845352;29;20590;-72
2021/12/29 17:38:39;;;;;;;27.98;10.50;;;;;;;-12.65;69.93;99953.06;4846457;29;20412;-74
2021/12/29 17:41:04;;;;;;;18.65;9.35;;;;;;;-12.48;69.64;99948.31;4829332;29;20132;-74
2021/12/29 17:43:31;;;;;;;21.55;8.70;;;;;;;-12.40;70.18;99946.81;4814393;29;20144;-76
2021/12/29 17:45:56;;;;;;;18.67;7.90;;;;;;;-12.54;69.60;99943.06;4845794;29;20607;-75
2021/12/29 17:48:20;;;;;;;26.55;10.38;;;;;;;-12.74;69.84;99951.91;4846084;29;20415;-68
2021/12/29 17:50:47;;;;;;;19.50;9.57;;;;;;;-12.79;70.26;99943.25;4813372;29;20044;-70
2021/12/29 17:53:14;;;;;;;13.55;6.07;;;;;;;-12.59;70.91;99936.91;4813034;29;20048;-70
2021/12/29 17:55:41;;;;;;;25.42;12.10;;;;;;;-12.68;70.28;99939.25;4844891;29;20049;-70
2021/12/29 17:58:08;;;;;;;20.45;9.23;;;;;;;-12.73;70.51;99925.44;4813704;29;20515;-70
2021/12/29 18:00:34;;;;;;;11.65;6.18;;;;;;;-12.72;70.32;99929.72;4827951;29;20144;-68
2021/12/29 18:02:59;;;;;;;12.80;8.32;;;;;;;-12.69;70.72;99929.81;4812658;29;20060;-68
2021/12/29 18:05:25;;;;;;;23.92;11.25;;;;;;;-12.84;70.55;99945.69;4844934;29;20053;-68
2021/12/29 18:07:50;;;;;;;22.30;10.20;;;;;;;-12.85;71.34;99949.94;4839554;29;20045;-71
2021/12/29 18:10:18;;;;;;;14.77;7.07;;;;;;;-12.83;70.94;99939.72;4841341;29;20101;-70